Time;durP1;ratioP1;P1;durP2;ratioP2;P2;SDS_P1;SDS_P2;PMS_P1;PMS_P2;Temp;Humidity;BMP_temperature;BMP_pressure;BME280_temperature;BME280_humidity;BME280_pressure;Samples;Min_cycle;Max_cycle;Signal;HPM_P1;HPM_P2
2022/12/29 00:01:16;;;;;;;13.27;7.30;;;;;;;11.87;68.77;98879.28;5093875;28;20387;-47
2022/12/29 00:03:42;;;;;;;13.00;7.28;;;;;;;11.93;69.44;98884.59;5076812;28;20081;-48
2022/12/29 00:06:07;;;;;;;14.82;7.25;;;;;;;12.00;68.22;98876.69;5093501;28;20089;-48
2022/12/29 00:08:39;;;;;;;11.43;7.10;;;;;;;11.97;68.67;98890.22;5094790;28;20028;-48
2022/12/29 00:11:07;;;;;;;15.05;8.18;;;;;;;12.04;68.14;98893.69;5094762;28;20553;-48
2022/12/29 00:16:17;;;;;;;11.02;5.88;;;;;;;12.08;67.46;98883.56;5094647;28;20070;-48
2022/12/29 00:18:42;;;;;;;11.70;5.93;;;;;;;12.09;67.77;98885.16;5093366;28;20052;-48
2022/12/29 00:35:10;;;;;;;8.52;5.10;;;;;;;12.32;66.57;98875.00;5094373;28;20027;-48
2022/12/29 00:45:53;;;;;;;8.60;5.00;;;;;;;12.45;65.45;98911.00;5094108;28;20039;-48
2022/12/29 00:49:29;;;;;;;10.60;5.32;;;;;;;12.44;65.59;98898.06;5092721;28;20029;-48
2022/12/29 00:51:04;;;;;;;8.65;5.90;;;;;;;12.43;65.59;98893.78;5093789;28;20032;-48
2022/12/29 00:53:30;;;;;;;7.07;5.30;;;;;;;12.42;65.58;98893.00;5093955;28;20031;-48
2022/12/29 00:55:55;;;;;;;11.82;5.88;;;;;;;12.41;65.38;98898.47;5092866;28;20482;-47
2022/12/29 00:58:21;;;;;;;8.63;4.97;;;;;;;12.38;65.54;98887.31;5092458;28;20020;-48
2022/12/29 01:00:46;;;;;;;12.68;5.38;;;;;;;12.38;65.44;98883.91;5092470;28;20118;-48
2022/12/29 01:03:12;;;;;;;8.27;4.28;;;;;;;12.42;65.11;98892.19;5092451;28;20048;-48
2022/12/29 01:05:38;;;;;;;11.48;4.63;;;;;;;12.43;65.04;98881.44;5093670;28;20460;-48
2022/12/29 01:08:03;;;;;;;16.17;6.53;;;;;;;12.52;66.11;98874.13;5093954;28;20359;-48
2022/12/29 01:10:29;;;;;;;10.07;4.78;;;;;;;12.58;63.78;98860.13;5092301;28;20020;-48
2022/12/29 01:12:55;;;;;;;12.77;5.32;;;;;;;12.54;63.67;98874.72;5092291;28;20062;-48
2022/12/29 01:15:21;;;;;;;8.35;4.55;;;;;;;12.54;63.52;98888.69;5092257;28;20024;-48
2022/12/29 01:17:46;;;;;;;11.07;4.05;;;;;;;12.56;62.89;98888.50;5092085;28;20016;-48
2022/12/29 01:20:12;;;;;;;10.27;5.00;;;;;;;12.48;63.54;98881.63;5092075;28;20024;-48
2022/12/29 01:22:39;;;;;;;8.02;4.45;;;;;;;12.51;63.27;98883.03;5093405;28;20024;-48
2022/12/29 01:25:05;;;;;;;10.80;4.65;;;;;;;12.56;63.07;98896.41;5093279;28;20026;-48
2022/12/29 01:27:31;;;;;;;10.10;4.35;;;;;;;12.53;63.80;98894.16;5092980;28;20093;-48
2022/12/29 01:29:56;;;;;;;7.63;4.43;;;;;;;12.59;63.17;98899.41;5091883;28;20405;-48
2022/12/29 01:32:22;;;;;;;7.35;4.20;;;;;;;12.63;63.36;98893.72;5091858;28;20032;-48
2022/12/29 01:34:48;;;;;;;10.32;4.30;;;;;;;12.62;62.91;98897.41;5091822;28;20119;-48
2022/12/29 01:37:13;;;;;;;9.07;4.10;;;;;;;12.68;62.45;98909.72;5074921;28;20387;-48
2022/12/29 01:39:39;;;;;;;15.02;4.95;;;;;;;12.60;62.64;98884.44;5091632;28;20508;-48
2022/12/29 01:42:04;;;;;;;7.68;3.42;;;;;;;12.59;62.73;98909.94;5091654;28;20046;-48
2022/12/29 01:45:07;;;;;;;6.47;4.03;;;;;;;12.51;63.17;98912.78;5092682;28;20012;-48
2022/12/29 01:47:44;;;;;;;9.95;4.03;;;;;;;12.55;62.60;98911.38;5092896;28;20490;-48
2022/12/29 01:50:11;;;;;;;7.68;3.85;;;;;;;12.49;63.02;98909.56;5092899;28;20024;-48
2022/12/29 01:52:44;;;;;;;7.13;4.28;;;;;;;12.49;62.81;98909.56;5092846;28;20027;-48
2022/12/29 01:55:11;;;;;;;9.32;4.00;;;;;;;12.47;62.65;98919.47;5092767;28;20036;-48
2022/12/29 01:57:43;;;;;;;17.67;4.63;;;;;;;12.50;63.12;98921.72;5092756;28;20028;-48
2022/12/29 02:00:11;;;;;;;5.78;3.72;;;;;;;12.55;62.83;98923.72;5092705;28;20405;-47
2022/12/29 02:02:37;;;;;;;13.40;4.85;;;;;;;12.58;63.03;98918.06;5091334;28;20383;-48
2022/12/29 02:05:11;;;;;;;9.07;4.18;;;;;;;12.62;62.76;98926.34;5091206;28;20024;-48
2022/12/29 02:07:37;;;;;;;7.45;4.35;;;;;;;12.56;63.08;98918.25;5091271;28;20039;-48
2022/12/29 02:10:04;;;;;;;11.15;4.63;;;;;;;12.54;63.04;98924.75;5092450;28;20055;-48
2022/12/29 02:12:30;;;;;;;11.15;8.05;;;;;;;12.49;63.04;98925.34;5092431;28;20028;-48
2022/12/29 02:15:00;;;;;;;10.75;6.55;;;;;;;12.43;63.38;98917.47;5092402;28;20073;-48
2022/12/29 02:18:12;;;;;;;11.32;6.28;;;;;;;12.39;63.67;98919.72;5092688;28;20028;-48
2022/12/29 02:21:02;;;;;;;16.38;9.38;;;;;;;12.35;63.62;98923.78;5092254;28;20032;-48
2022/12/29 02:23:33;;;;;;;8.98;5.10;;;;;;;12.36;63.82;98922.78;5091063;28;20040;-48
2022/12/29 02:26:24;;;;;;;10.02;4.25;;;;;;;12.36;63.89;98915.69;5092075;28;20044;-48
2022/12/29 02:29:18;;;;;;;6.78;4.15;;;;;;;12.65;64.02;98912.75;5092521;28;20032;-48
2022/12/29 02:31:47;;;;;;;10.88;4.13;;;;;;;12.68;62.91;98912.38;5090887;28;20505;-48
2022/12/29 02:34:38;;;;;;;9.88;4.57;;;;;;;12.50;63.07;98905.94;5090858;28;20078;-48
2022/12/29 02:37:27;;;;;;;8.57;3.97;;;;;;;12.39;63.29;98910.00;5092059;28;20574;-48
2022/12/29 02:40:18;;;;;;;9.15;4.72;;;;;;;12.33;64.11;98904.75;5083387;28;20032;-48
2022/12/29 02:42:50;;;;;;;9.63;4.10;;;;;;;12.32;63.64;98901.31;5092071;28;20036;-48
2022/12/29 02:45:54;;;;;;;10.48;4.57;;;;;;;12.37;63.98;98892.78;5090697;28;20020;-48
2022/12/29 02:48:31;;;;;;;6.35;3.80;;;;;;;12.39;63.59;98893.41;5090654;28;20025;-48
2022/12/29 02:51:08;;;;;;;7.60;4.50;;;;;;;12.31;63.87;98880.47;5092189;28;20103;-48
2022/12/29 02:56:20;;;;;;;8.82;4.32;;;;;;;12.03;66.07;98863.09;5091518;28;20028;-48
2022/12/29 02:58:46;;;;;;;6.18;3.90;;;;;;;11.79;67.43;98852.22;5090611;28;20389;-48
2022/12/29 03:01:15;;;;;;;14.27;4.03;;;;;;;11.64;68.60;98837.66;5090497;28;20115;-48
2022/12/29 03:03:53;;;;;;;7.72;4.40;;;;;;;11.53;68.48;98836.41;5092049;28;20032;-48
2022/12/29 03:06:54;;;;;;;7.68;3.38;;;;;;;11.39;69.05;98815.41;5091791;28;20052;-48
2022/12/29 03:09:26;;;;;;;6.80;3.83;;;;;;;11.37;69.00;98806.94;5029347;28;20404;-48
2022/12/29 03:18:43;;;;;;;6.57;2.78;;;;;;;11.43;68.36;98791.34;5029454;28;20049;-49
2022/12/29 03:21:17;;;;;;;6.28;3.70;;;;;;;11.50;67.58;98805.31;5029292;28;20041;-48
2022/12/29 03:23:48;;;;;;;7.47;3.15;;;;;;;11.59;67.34;98799.66;5029361;28;20037;-48
2022/12/29 03:26:18;;;;;;;7.90;3.47;;;;;;;11.70;66.44;98798.19;5028963;28;20050;-47
2022/12/29 03:28:52;;;;;;;4.25;2.90;;;;;;;11.83;65.41;98799.19;5029309;28;20029;-48
2022/12/29 03:31:20;;;;;;;12.73;4.10;;;;;;;11.94;64.90;98778.34;5029244;28;20491;-48
2022/12/29 03:33:47;;;;;;;5.70;2.72;;;;;;;12.11;64.42;98781.38;5012645;28;20030;-48
2022/12/29 03:36:20;;;;;;;14.38;3.78;;;;;;;12.12;63.99;98774.28;5029098;28;20049;-48
2022/12/29 03:38:52;;;;;;;10.75;3.83;;;;;;;12.11;64.08;98775.28;5029093;28;20041;-48
2022/12/29 03:41:24;;;;;;;8.00;3.80;;;;;;;12.09;64.06;98767.59;5012596;28;20033;-49
2022/12/29 03:43:50;;;;;;;5.63;3.08;;;;;;;12.13;64.07;98760.09;5012600;28;20072;-48
2022/12/29 03:46:16;;;;;;;7.47;2.95;;;;;;;12.11;63.77;98756.84;5076836;28;20060;-48
2022/12/29 03:48:41;;;;;;;9.55;2.88;;;;;;;12.07;64.16;98759.09;5091358;28;20394;-48
2022/12/29 03:51:07;;;;;;;11.45;3.58;;;;;;;12.02;65.08;98766.81;5090058;28;20375;-48
2022/12/29 03:53:32;;;;;;;9.25;4.10;;;;;;;11.91;65.30;98763.00;5090035;28;20101;-48
2022/12/29 03:55:58;;;;;;;5.63;3.92;;;;;;;11.85;66.43;98776.97;5089974;28;20024;-48
2022/12/29 03:58:24;;;;;;;5.78;3.30;;;;;;;11.91;65.50;98773.53;5091241;28;20042;-48
2022/12/29 04:00:49;;;;;;;8.32;3.65;;;;;;;11.94;65.35;98780.19;5091224;28;20458;-48
2022/12/29 04:03:15;;;;;;;8.93;4.35;;;;;;;11.96;65.50;98773.69;5091235;28;20020;-48
2022/12/29 04:05:40;;;;;;;7.53;3.58;;;;;;;12.01;65.15;98770.44;5089991;28;20505;-48
2022/12/29 04:08:06;;;;;;;11.18;3.83;;;;;;;12.09;64.59;98770.25;5092470;28;20505;-48
2022/12/29 04:10:31;;;;;;;8.95;3.50;;;;;;;12.13;64.27;98781.97;5076622;28;20489;-48
2022/12/29 04:12:57;;;;;;;7.95;2.90;;;;;;;12.13;64.03;98781.13;5093431;28;20070;-48
2022/12/29 04:15:24;;;;;;;7.90;3.45;;;;;;;12.11;63.50;98770.84;5094722;28;20486;-48
2022/12/29 04:17:49;;;;;;;9.38;4.40;;;;;;;12.07;63.63;98763.53;5094826;28;20020;-48
2022/12/29 04:23:03;;;;;;;6.75;3.25;;;;;;;12.08;63.54;98768.59;5094884;28;20105;-48
2022/12/29 04:25:31;;;;;;;6.78;3.63;;;;;;;12.04;63.11;98754.25;5094479;28;20035;-48
2022/12/29 04:27:57;;;;;;;4.68;2.75;;;;;;;12.09;62.93;98751.81;5093013;28;20110;-48
2022/12/29 04:30:22;;;;;;;9.65;4.55;;;;;;;12.13;62.42;98750.41;5093200;28;20024;-48
2022/12/29 04:32:48;;;;;;;6.25;3.30;;;;;;;12.17;62.33;98740.22;5094368;28;20018;-48
2022/12/29 04:35:13;;;;;;;8.18;3.45;;;;;;;12.23;61.86;98738.59;5094343;28;20486;-48
2022/12/29 04:37:39;;;;;;;7.93;4.20;;;;;;;12.27;61.86;98727.44;5093063;28;20404;-48
2022/12/29 04:40:05;;;;;;;10.57;3.10;;;;;;;12.27;61.55;98726.63;5092828;28;20118;-48
2022/12/29 04:42:31;;;;;;;4.80;2.67;;;;;;;12.38;61.06;98744.41;5092898;28;20016;-48
2022/12/29 04:44:57;;;;;;;10.13;3.85;;;;;;;12.36;61.37;98754.34;5094114;28;20031;-48
2022/12/29 04:47:22;;;;;;;10.00;3.58;;;;;;;12.37;60.98;98742.78;5094026;28;20060;-48
2022/12/29 04:49:48;;;;;;;6.57;2.95;;;;;;;12.42;60.91;98755.31;5092750;28;20119;-48
2022/12/29 04:52:13;;;;;;;6.53;2.88;;;;;;;12.46;60.70;98767.03;5092666;28;20063;-48
2022/12/29 04:54:39;;;;;;;7.30;3.63;;;;;;;12.37;60.90;98774.34;5092656;28;20032;-48
2022/12/29 04:57:05;;;;;;;8.13;3.45;;;;;;;12.41;60.93;98770.28;5093853;28;20020;-48
2022/12/29 04:59:30;;;;;;;7.40;3.22;;;;;;;12.47;60.96;98771.28;5093785;28;20024;-48
2022/12/29 05:01:56;;;;;;;10.13;3.63;;;;;;;12.51;60.73;98780.38;5093806;28;20019;-49
2022/12/29 05:04:22;;;;;;;10.40;3.10;;;;;;;12.54;61.10;98780.75;5093719;28;20028;-48
2022/12/29 05:06:48;;;;;;;10.15;2.90;;;;;;;12.51;60.04;98780.38;5092397;28;20069;-48
2022/12/29 05:09:13;;;;;;;5.43;3.05;;;;;;;12.39;60.32;98781.06;5092361;28;20028;-48
2022/12/29 05:11:39;;;;;;;8.18;4.03;;;;;;;12.36;60.27;98783.28;5092309;28;20077;-48
2022/12/29 05:14:04;;;;;;;4.90;2.78;;;;;;;12.34;59.94;98777.44;5093565;28;20015;-48
2022/12/29 05:16:30;;;;;;;6.70;2.95;;;;;;;12.30;60.40;98776.22;5093518;28;20020;-47
2022/12/29 05:18:55;;;;;;;8.68;3.30;;;;;;;12.34;59.41;98777.44;5091389;28;20035;-48
2022/12/29 05:21:21;;;;;;;7.97;3.13;;;;;;;12.33;59.45;98773.16;5092165;28;20039;-48
2022/12/29 05:23:47;;;;;;;6.32;3.03;;;;;;;12.31;59.27;98772.56;5093404;28;20081;-48
2022/12/29 05:26:12;;;;;;;4.05;2.60;;;;;;;12.31;59.49;98781.25;5093031;28;20060;-48
2022/12/29 05:28:38;;;;;;;6.38;2.40;;;;;;;12.27;59.28;98784.53;5092044;28;20119;-48
2022/12/29 05:31:04;;;;;;;5.95;2.65;;;;;;;12.24;59.67;98777.88;5091857;28;20052;-48
2022/12/29 05:33:29;;;;;;;10.15;3.40;;;;;;;12.24;59.96;98779.69;5091870;28;20032;-48
2022/12/29 05:35:55;;;;;;;13.55;4.50;;;;;;;12.27;59.61;98774.81;5093092;28;20556;-48
2022/12/29 05:38:20;;;;;;;6.18;2.72;;;;;;;12.30;59.26;98774.41;5091709;28;20024;-47
2022/12/29 05:40:46;;;;;;;7.13;3.38;;;;;;;12.38;59.24;98781.25;5092995;28;20031;-48
2022/12/29 05:43:11;;;;;;;7.38;2.60;;;;;;;12.35;59.03;98784.28;5093047;28;20016;-48
2022/12/29 05:45:37;;;;;;;8.32;2.60;;;;;;;12.33;59.33;98784.50;5091610;28;20028;-48
2022/12/29 05:48:03;;;;;;;3.92;2.20;;;;;;;12.36;59.16;98772.75;5092919;28;20073;-48
2022/12/29 05:50:29;;;;;;;6.00;2.58;;;;;;;12.42;58.96;98760.59;5092848;28;20032;-48
2022/12/29 05:52:54;;;;;;;4.97;2.50;;;;;;;12.47;58.59;98758.13;5091482;28;20031;-48
2022/12/29 05:55:20;;;;;;;10.60;2.85;;;;;;;12.48;58.21;98749.22;5092749;28;20063;-48
2022/12/29 05:57:46;;;;;;;6.13;2.60;;;;;;;12.49;58.39;98769.25;5091422;28;20111;-48
2022/12/29 06:00:12;;;;;;;6.38;2.25;;;;;;;12.49;58.18;98769.25;5092513;28;20473;-48
2022/12/29 06:02:38;;;;;;;5.18;2.13;;;;;;;12.49;58.24;98766.59;5091614;28;20410;-48
2022/12/29 06:05:04;;;;;;;6.60;2.33;;;;;;;12.51;58.13;98760.09;5091343;28;20032;-48
2022/12/29 06:07:29;;;;;;;8.57;2.63;;;;;;;12.50;58.00;98752.44;5092584;28;20456;-48
2022/12/29 06:09:55;;;;;;;6.40;3.08;;;;;;;12.50;57.87;98757.72;5092518;28;20027;-48
2022/12/29 06:12:20;;;;;;;5.85;2.75;;;;;;;12.46;58.01;98753.88;5091198;28;20024;-48
2022/12/29 06:14:46;;;;;;;6.90;2.55;;;;;;;12.43;57.86;98767.44;5092435;28;20031;-48
2022/12/29 06:17:11;;;;;;;8.48;2.45;;;;;;;12.44;58.26;98761.19;5092437;28;20103;-48
2022/12/29 06:19:37;;;;;;;4.07;2.42;;;;;;;12.48;57.29;98767.66;5092302;28;20035;-48
2022/12/29 06:22:02;;;;;;;7.90;3.08;;;;;;;12.52;57.25;98772.28;5091003;28;20028;-48
2022/12/29 06:24:28;;;;;;;8.77;2.67;;;;;;;12.53;57.01;98784.41;5090988;28;20028;-48
2022/12/29 06:26:54;;;;;;;4.65;2.30;;;;;;;12.54;57.01;98775.50;5092087;28;20044;-48
2022/12/29 06:29:20;;;;;;;7.90;2.83;;;;;;;12.56;57.21;98773.47;5092239;28;20107;-48
2022/12/29 06:31:46;;;;;;;9.30;3.17;;;;;;;12.62;57.01;98781.56;5091183;28;20405;-48
2022/12/29 06:34:12;;;;;;;9.57;2.65;;;;;;;12.62;57.32;98786.81;5092163;28;20012;-48
2022/12/29 06:36:38;;;;;;;7.32;2.97;;;;;;;12.64;56.72;98784.78;5090804;28;20059;-48
2022/12/29 06:39:04;;;;;;;6.28;2.45;;;;;;;12.65;56.77;98802.19;5090718;28;20043;-48
2022/12/29 06:41:30;;;;;;;7.80;2.50;;;;;;;12.66;56.63;98801.16;5092001;28;20512;-48
2022/12/29 06:43:55;;;;;;;8.60;2.70;;;;;;;12.70;56.31;98805.78;5090732;28;20020;-48
2022/12/29 06:46:21;;;;;;;4.40;1.98;;;;;;;12.80;56.15;98810.59;5090962;28;20505;-48
2022/12/29 06:48:46;;;;;;;8.80;2.40;;;;;;;12.85;55.35;98809.97;5090613;28;20081;-48
2022/12/29 06:51:12;;;;;;;8.27;2.80;;;;;;;12.86;55.07;98798.41;5091970;28;20540;-48
2022/12/29 06:53:38;;;;;;;7.05;2.28;;;;;;;12.86;55.42;98796.59;5090698;28;20024;-48
2022/12/29 06:56:04;;;;;;;3.78;1.90;;;;;;;12.92;55.36;98784.41;5091858;28;20028;-48
2022/12/29 06:58:29;;;;;;;5.50;2.45;;;;;;;12.96;55.36;98785.59;5091841;28;20016;-48
2022/12/29 07:00:55;;;;;;;8.68;2.83;;;;;;;12.92;55.08;98781.78;5090792;28;20016;-48
2022/12/29 07:03:20;;;;;;;10.07;2.33;;;;;;;12.87;55.27;98785.03;5090529;28;20024;-48
2022/12/29 07:05:46;;;;;;;5.75;2.92;;;;;;;12.81;55.42;98771.91;5090437;28;20028;-48
2022/12/29 07:08:11;;;;;;;6.80;2.50;;;;;;;12.71;55.57;98783.69;5091792;28;20099;-48
2022/12/29 07:10:37;;;;;;;5.78;2.25;;;;;;;12.67;56.29;98782.50;5090429;28;20059;-48
2022/12/29 07:13:03;;;;;;;5.68;2.10;;;;;;;12.66;56.23;98793.28;5091763;28;20551;-48
2022/12/29 07:15:28;;;;;;;6.47;2.55;;;;;;;12.54;56.39;98774.69;5090410;28;20032;-48
2022/12/29 07:17:54;;;;;;;7.20;2.72;;;;;;;12.48;56.34;98773.72;5090413;28;20386;-48
2022/12/29 07:20:19;;;;;;;5.45;2.47;;;;;;;12.51;56.53;98775.09;5091663;28;20111;-48
2022/12/29 07:22:46;;;;;;;12.10;3.05;;;;;;;12.47;56.62;98779.97;5090319;28;20429;-48
2022/12/29 07:25:12;;;;;;;8.88;2.60;;;;;;;12.47;56.43;98782.59;5091588;28;20016;-48
2022/12/29 07:27:38;;;;;;;7.85;3.40;;;;;;;12.50;56.66;98779.56;5090032;28;20048;-48
2022/12/29 07:30:04;;;;;;;3.92;2.20;;;;;;;12.54;56.79;98803.66;5090251;28;20131;-47
2022/12/29 07:32:33;;;;;;;8.70;2.63;;;;;;;12.64;56.50;98797.94;5090261;28;20085;-48
2022/12/29 07:34:59;;;;;;;10.02;2.70;;;;;;;12.77;55.77;98787.31;5091561;28;20107;-48
2022/12/29 07:37:24;;;;;;;6.90;2.63;;;;;;;12.82;55.85;98798.03;5091485;28;20513;-48
2022/12/29 07:39:50;;;;;;;7.57;2.15;;;;;;;12.93;55.11;98794.69;5090141;28;20094;-48
2022/12/29 07:42:15;;;;;;;6.32;3.00;;;;;;;12.97;55.29;98795.91;5092818;28;20039;-48
2022/12/29 07:44:41;;;;;;;7.15;2.45;;;;;;;13.04;55.34;98800.31;5095349;28;20019;-48
2022/12/29 07:47:06;;;;;;;6.07;2.72;;;;;;;13.14;55.36;98814.66;5093987;28;20116;-48
2022/12/29 07:49:32;;;;;;;10.77;2.67;;;;;;;13.32;55.05;98813.94;5093960;28;20024;-48
2022/12/29 07:51:57;;;;;;;10.27;3.15;;;;;;;13.56;54.42;98814.13;5077034;28;20028;-48
2022/12/29 07:54:23;;;;;;;6.97;2.55;;;;;;;13.72;53.55;98807.50;5093892;28;20081;-48
2022/12/29 07:56:49;;;;;;;10.30;2.67;;;;;;;13.81;53.29;98821.22;5095089;28;20470;-48
2022/12/29 07:59:14;;;;;;;8.57;2.45;;;;;;;13.96;52.97;98819.84;5093712;28;20048;-48
2022/12/29 08:01:40;;;;;;;6.68;2.30;;;;;;;14.22;52.87;98819.78;5093673;28;20028;-48
2022/12/29 08:04:05;;;;;;;7.97;2.25;;;;;;;14.51;51.50;98826.16;5095037;28;20016;-48
2022/12/29 08:06:31;;;;;;;5.97;2.47;;;;;;;14.55;51.02;98827.31;5094897;28;20081;-48
2022/12/29 08:08:57;;;;;;;10.30;3.25;;;;;;;14.71;50.95;98829.38;5093641;28;20028;-48
2022/12/29 08:11:23;;;;;;;9.30;3.00;;;;;;;14.85;50.92;98827.34;5093487;28;20485;-48
2022/12/29 08:13:49;;;;;;;7.35;3.13;;;;;;;15.10;51.04;98834.31;5093477;28;20513;-48
2022/12/29 08:16:15;;;;;;;6.35;2.30;;;;;;;15.36;50.00;98841.84;5093383;28;20081;-48
2022/12/29 08:18:40;;;;;;;6.70;2.58;;;;;;;15.28;49.34;98842.19;5093284;28;20032;-48
2022/12/29 08:21:06;;;;;;;7.13;2.90;;;;;;;15.16;49.96;98850.06;5093469;28;20036;-48
2022/12/29 08:23:32;;;;;;;8.68;2.90;;;;;;;15.18;50.27;98847.22;5093377;28;20024;-48
2022/12/29 08:26:03;;;;;;;7.15;2.90;;;;;;;15.42;49.66;98853.34;5093010;28;20522;-48
2022/12/29 08:28:29;;;;;;;9.38;2.50;;;;;;;16.00;47.98;98846.53;5094547;28;20028;-48
2022/12/29 08:30:58;;;;;;;10.20;2.65;;;;;;;16.11;47.55;98848.34;5093128;28;20513;-48
2022/12/29 08:33:23;;;;;;;6.05;2.60;;;;;;;15.94;47.58;98845.59;5094442;28;20036;-48
2022/12/29 08:35:49;;;;;;;10.57;2.40;;;;;;;15.44;48.54;98851.28;5093052;28;20509;-48
2022/12/29 08:38:14;;;;;;;6.68;2.92;;;;;;;15.14;49.18;98841.56;5094200;28;20409;-48
2022/12/29 08:40:40;;;;;;;8.18;2.88;;;;;;;14.92;50.05;98838.63;5094269;28;20504;-48
2022/12/29 08:43:06;;;;;;;7.47;2.33;;;;;;;14.88;49.85;98842.75;5094217;28;20024;-48
2022/12/29 08:45:32;;;;;;;5.60;2.60;;;;;;;14.64;50.74;98847.13;5094171;28;20024;-48
2022/12/29 08:47:57;;;;;;;7.75;3.05;;;;;;;14.61;50.83;98841.47;5094091;28;20509;-48
2022/12/29 08:50:23;;;;;;;7.47;2.90;;;;;;;14.63;50.89;98844.69;5092817;28;20544;-48
2022/12/29 08:52:49;;;;;;;8.32;2.72;;;;;;;14.82;51.15;98841.00;5093803;28;20035;-48
2022/12/29 08:55:14;;;;;;;5.97;2.67;;;;;;;15.52;49.40;98847.50;5091881;28;20024;-47
2022/12/29 08:57:40;;;;;;;5.63;2.28;;;;;;;16.19;47.39;98844.53;5092576;28;20066;-48
2022/12/29 09:00:07;;;;;;;5.38;2.35;;;;;;;16.70;46.35;98839.44;5093828;28;20100;-48
2022/12/29 09:02:32;;;;;;;11.27;2.10;;;;;;;17.02;45.51;98833.69;5092509;28;20401;-48
2022/12/29 09:04:58;;;;;;;5.47;2.00;;;;;;;17.29;44.85;98837.34;5093798;28;20103;-48
2022/12/29 09:07:24;;;;;;;6.15;2.08;;;;;;;17.38;44.08;98824.47;5092389;28;20107;-48
2022/12/29 09:09:50;;;;;;;4.93;2.35;;;;;;;17.30;44.94;98816.91;5075528;28;20111;-46
2022/12/29 09:12:17;;;;;;;4.75;2.70;;;;;;;17.71;43.95;98810.41;5092302;28;20052;-45
2022/12/29 09:14:45;;;;;;;7.38;3.40;;;;;;;17.98;43.38;98814.22;5092279;28;20103;-46
2022/12/29 09:19:55;;;;;;;6.18;3.17;;;;;;;18.49;42.42;98813.00;5093460;28;20097;-45
2022/12/29 09:22:21;;;;;;;6.47;2.83;;;;;;;18.87;41.16;98815.81;5092098;28;20482;-46
2022/12/29 09:24:47;;;;;;;7.25;2.95;;;;;;;19.10;40.86;98820.03;5093415;28;20486;-46
2022/12/29 09:27:12;;;;;;;7.05;2.30;;;;;;;19.42;40.23;98809.38;5091789;28;20497;-46
2022/12/29 09:29:38;;;;;;;4.95;2.38;;;;;;;19.44;39.62;98806.47;5091956;28;20528;-46
2022/12/29 09:32:04;;;;;;;7.57;2.15;;;;;;;19.49;39.41;98796.63;5091917;28;20084;-46
2022/12/29 09:34:29;;;;;;;8.75;2.85;;;;;;;19.54;39.44;98785.25;5091827;28;20379;-46
2022/12/29 09:36:56;;;;;;;4.43;1.77;;;;;;;19.45;39.45;98784.91;5075015;28;20098;-46
2022/12/29 09:39:23;;;;;;;3.75;1.95;;;;;;;19.20;39.80;98764.25;5093043;28;20047;-46
2022/12/29 09:42:03;;;;;;;4.32;2.00;;;;;;;18.65;40.59;98768.78;5093060;28;20020;-45
2022/12/29 09:44:38;;;;;;;5.07;1.95;;;;;;;18.43;41.44;98760.88;5093119;28;20016;-46
2022/12/29 09:47:08;;;;;;;8.05;2.22;;;;;;;18.65;41.21;98773.28;5093280;28;20402;-46
2022/12/29 09:49:45;;;;;;;7.63;1.88;;;;;;;19.11;40.52;98768.41;5091635;28;20084;-46
2022/12/29 09:52:20;;;;;;;5.22;2.25;;;;;;;19.40;39.95;98768.91;5092891;28;20389;-47
2022/12/29 09:55:09;;;;;;;3.72;2.00;;;;;;;20.17;38.01;98779.19;5092946;28;20038;-46
2022/12/29 09:57:43;;;;;;;6.55;1.98;;;;;;;20.54;37.17;98790.53;5092729;28;20024;-46
2022/12/29 10:00:21;;;;;;;8.07;2.50;;;;;;;20.59;37.66;98802.28;5092770;28;20059;-46
2022/12/29 10:02:57;;;;;;;5.93;2.42;;;;;;;21.38;36.49;98793.00;5091374;28;20085;-46
2022/12/29 10:06:01;;;;;;;5.88;2.30;;;;;;;21.75;35.74;98791.91;5091130;28;20035;-46
2022/12/29 10:08:41;;;;;;;13.45;2.40;;;;;;;22.53;35.19;98802.06;5092666;28;20482;-46
2022/12/29 10:11:16;;;;;;;7.80;2.30;;;;;;;22.70;33.11;98817.75;5091263;28;20020;-46
2022/12/29 10:14:27;;;;;;;8.95;2.15;;;;;;;22.02;33.92;98796.91;5092587;28;20035;-46
2022/12/29 10:17:16;;;;;;;4.53;2.33;;;;;;;22.37;34.79;98787.16;5091170;28;20055;-46
2022/12/29 10:20:11;;;;;;;3.85;1.67;;;;;;;22.60;33.04;98780.38;5091092;28;20119;-46
2022/12/29 10:23:03;;;;;;;5.28;2.30;;;;;;;22.52;33.23;98775.59;5077977;28;20032;-46
2022/12/29 10:25:33;;;;;;;7.45;2.30;;;;;;;21.88;33.54;98769.97;5091071;28;20453;-46
2022/12/29 10:28:04;;;;;;;12.35;2.92;;;;;;;21.17;36.02;98791.41;5092172;28;20036;-46
2022/12/29 10:30:33;;;;;;;6.38;2.22;;;;;;;20.87;36.47;98764.47;5090935;28;20055;-46
2022/12/29 10:33:02;;;;;;;6.90;2.17;;;;;;;21.37;36.00;98759.38;5090926;28;20413;-46
2022/12/29 10:35:37;;;;;;;6.28;2.50;;;;;;;21.69;35.76;98766.28;5090816;28;20023;-46
2022/12/29 10:38:18;;;;;;;5.63;2.17;;;;;;;21.05;35.99;98757.00;5092102;28;20028;-45
2022/12/29 10:41:00;;;;;;;7.00;2.33;;;;;;;20.29;37.04;98750.47;5092191;28;20471;-46
2022/12/29 10:43:29;;;;;;;11.43;3.25;;;;;;;19.72;38.52;98742.25;5090771;28;20036;-45
2022/12/29 10:45:59;;;;;;;8.77;2.58;;;;;;;19.85;38.62;98751.63;5074112;28;20024;-46
2022/12/29 10:48:32;;;;;;;9.95;3.20;;;;;;;20.63;37.96;98734.03;5090690;28;20127;-46
2022/12/29 10:51:01;;;;;;;3.78;1.98;;;;;;;21.07;37.12;98747.66;5090597;28;20527;-46
2022/12/29 10:53:43;;;;;;;6.57;2.03;;;;;;;20.43;37.72;98711.56;5090560;28;20031;-46
2022/12/29 10:56:30;;;;;;;5.70;2.30;;;;;;;19.84;39.23;98730.56;5090628;28;20081;-46
2022/12/29 10:59:01;;;;;;;5.43;1.98;;;;;;;19.20;39.44;98727.00;5091858;28;20024;-46
2022/12/29 11:01:36;;;;;;;7.70;2.03;;;;;;;18.49;41.15;98717.34;5090512;28;20468;-46
2022/12/29 11:04:36;;;;;;;11.50;3.20;;;;;;;18.14;43.47;98707.94;5090617;28;20036;-46
2022/12/29 11:07:06;;;;;;;14.68;3.33;;;;;;;17.86;44.29;98700.19;5091889;28;20077;-46
2022/12/29 11:09:36;;;;;;;8.27;2.72;;;;;;;17.65;43.76;98696.44;5090825;28;20401;-46
2022/12/29 11:12:20;;;;;;;6.28;2.83;;;;;;;17.35;44.74;98705.59;5090561;28;20094;-46
2022/12/29 11:14:45;;;;;;;7.03;2.03;;;;;;;17.18;45.64;98668.47;5091774;28;20447;-46
2022/12/29 11:17:16;;;;;;;7.45;2.65;;;;;;;16.98;45.78;98722.00;5091971;28;20126;-45
2022/12/29 11:19:41;;;;;;;11.85;2.97;;;;;;;16.83;46.55;98711.16;5095794;28;20120;-46
2022/12/29 11:22:22;;;;;;;5.97;2.50;;;;;;;16.92;46.97;98697.28;5095742;28;20050;-46
2022/12/29 11:24:50;;;;;;;11.98;2.47;;;;;;;16.95;46.19;98678.22;5095745;28;20130;-46
2022/12/29 11:27:22;;;;;;;12.15;4.07;;;;;;;16.84;47.45;98680.94;5095401;28;20505;-46
2022/12/29 11:29:50;;;;;;;7.68;2.30;;;;;;;16.86;46.57;98689.47;5094289;28;20110;-46
2022/12/29 11:32:27;;;;;;;6.47;2.15;;;;;;;16.88;45.94;98668.81;5094262;28;20032;-45
2022/12/29 11:34:54;;;;;;;6.80;2.45;;;;;;;16.85;46.31;98690.53;5095444;28;20063;-45
2022/12/29 11:37:29;;;;;;;8.98;1.95;;;;;;;16.87;45.38;98667.22;5094160;28;20024;-45
2022/12/29 11:39:57;;;;;;;;;;;;;;;16.80;46.12;98656.75;5095835;28;20036;-46
2022/12/29 11:42:31;;;;;;;4.40;1.98;;;;;;;16.89;46.19;98665.13;5095365;28;19973;-45
2022/12/29 11:45:05;;;;;;;7.57;2.30;;;;;;;17.01;46.10;98675.66;5094260;28;20027;-46
2022/12/29 11:47:32;;;;;;;8.38;2.60;;;;;;;16.97;46.11;98675.34;5093995;28;20276;-45
2022/12/29 11:50:06;;;;;;;7.40;2.63;;;;;;;16.94;45.90;98659.91;5095263;28;20073;-45
2022/12/29 11:52:36;;;;;;;8.68;2.25;;;;;;;16.95;46.14;98649.06;5095326;28;20501;-46
2022/12/29 11:55:05;;;;;;;8.82;2.65;;;;;;;17.13;46.02;98657.81;5095165;28;20024;-45
2022/12/29 11:57:34;;;;;;;10.52;2.35;;;;;;;17.40;45.33;98649.94;5077091;28;20081;-45
2022/12/29 12:00:03;;;;;;;7.38;2.85;;;;;;;17.49;45.27;98658.28;5095300;28;20028;-46
2022/12/29 12:02:43;;;;;;;7.32;2.05;;;;;;;17.34;45.10;98643.78;5095297;28;20455;-46
2022/12/29 12:05:14;;;;;;;8.93;2.25;;;;;;;17.30;45.40;98633.88;5095030;28;20473;-45
2022/12/29 12:07:47;;;;;;;10.75;3.10;;;;;;;17.29;45.95;98619.03;5095241;28;20034;-45
2022/12/29 12:10:42;;;;;;;10.40;2.88;;;;;;;17.25;45.60;98621.38;5093541;28;20059;-46
2022/12/29 12:13:27;;;;;;;6.37;2.57;;;;;;;17.08;45.62;98620.59;5067268;28;20036;-45
2022/12/29 12:16:17;;;;;;;8.80;3.97;;;;;;;16.97;46.29;98633.72;5093531;28;20110;-46
2022/12/29 12:18:51;;;;;;;18.42;4.85;;;;;;;16.90;46.87;98619.84;5094977;28;20447;-45
2022/12/29 12:21:21;;;;;;;10.07;3.17;;;;;;;16.94;46.31;98615.66;5076966;28;20440;-46
2022/12/29 12:23:50;;;;;;;7.15;2.47;;;;;;;16.79;46.67;98599.50;5094893;28;20050;-46